Time;durP1;ratioP1;P1;durP2;ratioP2;P2;SDS_P1;SDS_P2;PMS_P1;PMS_P2;Temp;Humidity;BMP_temperature;BMP_pressure;BME280_temperature;BME280_humidity;BME280_pressure;Samples;Min_cycle;Max_cycle;Signal;HPM_P1;HPM_P2
2022/04/06 00:00:01;;;;;;;18.92;9.20;;;;;;;7.36;100.00;100105.75;6123858;23;20235;-77
2022/04/06 00:02:39;;;;;;;21.55;9.27;;;;;;;7.32;100.00;100102.25;6147617;23;20025;-77
2022/04/06 00:05:09;;;;;;;22.45;9.80;;;;;;;7.33;100.00;100103.13;6155657;23;20020;-77
2022/04/06 00:07:39;;;;;;;25.33;8.80;;;;;;;7.30;100.00;100101.38;6130620;23;20012;-77
2022/04/06 00:10:08;;;;;;;24.13;9.83;;;;;;;7.29;100.00;100089.13;6158864;23;20020;-77
2022/04/06 00:12:38;;;;;;;22.30;9.13;;;;;;;7.29;100.00;100085.63;6106617;23;20032;-77
2022/04/06 00:15:09;;;;;;;21.53;10.03;;;;;;;7.28;100.00;100083.88;6135297;23;20021;-77
2022/04/06 00:17:39;;;;;;;19.10;9.73;;;;;;;7.26;100.00;100081.25;6155960;23;20023;-77
2022/04/06 00:20:08;;;;;;;25.05;10.25;;;;;;;7.27;100.00;100072.53;6155221;23;20025;-78
2022/04/06 00:22:37;;;;;;;29.30;10.30;;;;;;;7.27;100.00;100082.13;6131068;23;20044;-78
2022/04/06 00:25:06;;;;;;;29.23;9.68;;;;;;;7.25;100.00;100071.63;6134249;23;20017;-78
2022/04/06 00:27:34;;;;;;;30.08;10.20;;;;;;;7.25;100.00;100069.03;6118432;23;20021;-78
2022/04/06 00:30:05;;;;;;;18.67;9.05;;;;;;;7.25;100.00;100065.53;6128439;23;20021;-77
2022/04/06 00:32:34;;;;;;;25.20;10.07;;;;;;;7.23;100.00;100066.38;6107856;23;20348;-77
2022/04/06 00:37:49;;;;;;;29.75;9.90;;;;;;;7.23;100.00;100070.75;6099956;23;20143;-77
2022/04/06 00:40:19;;;;;;;28.35;10.02;;;;;;;7.22;100.00;100069.91;6159214;23;20024;-77
2022/04/06 00:42:48;;;;;;;30.05;11.40;;;;;;;7.21;100.00;100048.91;6095004;23;20116;-77
2022/04/06 00:45:17;;;;;;;29.42;10.88;;;;;;;7.23;100.00;100062.91;6134989;23;20429;-77
2022/04/06 00:47:45;;;;;;;21.92;10.05;;;;;;;7.22;100.00;100061.13;6120070;23;20251;-78
2022/04/06 00:50:14;;;;;;;31.48;11.73;;;;;;;7.22;100.00;100054.16;6131065;23;20021;-78
2022/04/06 00:52:43;;;;;;;25.98;11.10;;;;;;;7.21;100.00;100047.16;6129930;23;20147;-78
2022/04/06 00:55:12;;;;;;;29.27;11.75;;;;;;;7.23;100.00;100045.41;6185229;23;20469;-77
2022/04/06 00:57:44;;;;;;;32.88;11.98;;;;;;;7.23;100.00;100041.94;6119196;23;20017;-77
2022/04/06 01:00:13;;;;;;;36.90;13.18;;;;;;;7.23;100.00;100040.19;6185334;23;20021;-79
2022/04/06 01:02:42;;;;;;;28.02;12.35;;;;;;;7.23;100.00;100040.19;6156077;23;20040;-79
2022/04/06 01:05:13;;;;;;;32.75;12.88;;;;;;;7.23;100.00;100039.31;6183166;23;20460;-80
2022/04/06 01:07:47;;;;;;;37.10;14.75;;;;;;;7.23;100.00;100042.81;6157966;23;20036;-80
2022/04/06 01:10:16;;;;;;;32.60;14.35;;;;;;;7.25;100.00;100042.81;6135584;23;20474;-80
2022/04/06 01:12:46;;;;;;;33.40;13.77;;;;;;;7.25;100.00;100027.09;6132329;23;20021;-79
2022/04/06 01:15:16;;;;;;;43.20;15.85;;;;;;;7.24;100.00;100022.75;6139985;23;20043;-79
2022/04/06 01:17:44;;;;;;;25.15;10.75;;;;;;;7.25;100.00;100029.72;6149719;23;20246;-80
2022/04/06 01:20:13;;;;;;;43.60;16.20;;;;;;;7.25;100.00;100019.22;6163592;23;20009;-79
2022/04/06 01:22:41;;;;;;;47.03;15.73;;;;;;;7.25;100.00;100011.38;6130886;23;20028;-80
2022/04/06 01:25:10;;;;;;;41.00;17.25;;;;;;;7.25;100.00;100002.63;6189456;23;20024;-79
2022/04/06 01:27:38;;;;;;;41.60;17.40;;;;;;;7.26;100.00;100007.88;6101345;23;20358;-80
2022/04/06 01:30:08;;;;;;;41.83;17.25;;;;;;;7.26;100.00;100005.28;6128270;23;20017;-79
2022/04/06 01:32:36;;;;;;;44.47;18.40;;;;;;;7.28;100.00;100007.88;6135537;23;20358;-79
2022/04/06 01:35:06;;;;;;;41.85;18.38;;;;;;;7.25;100.00;100000.88;6128582;23;20025;-79
2022/04/06 01:37:34;;;;;;;40.53;18.98;;;;;;;7.26;100.00;100000.03;6155915;23;20021;-79
2022/04/06 01:40:05;;;;;;;43.17;19.33;;;;;;;7.26;100.00;99986.03;6124374;23;20013;-79
2022/04/06 01:42:34;;;;;;;41.40;18.90;;;;;;;7.25;100.00;99985.16;6160385;23;20645;-79
2022/04/06 01:45:03;;;;;;;40.60;18.48;;;;;;;7.26;100.00;99984.31;6124662;23;20025;-79
2022/04/06 01:47:31;;;;;;;44.95;19.00;;;;;;;7.25;100.00;99977.28;6135608;23;20021;-79
2022/04/06 01:52:47;;;;;;;43.28;18.33;;;;;;;7.25;100.00;99971.19;6180397;23;20561;-79
2022/04/06 01:55:16;;;;;;;43.05;19.25;;;;;;;7.25;100.00;99969.44;6138613;23;20021;-79
2022/04/06 01:57:45;;;;;;;43.92;17.13;;;;;;;7.25;100.00;99972.06;6133076;23;20017;-79
2022/04/06 02:00:16;;;;;;;39.95;18.67;;;;;;;7.23;100.00;99966.81;6188794;23;20028;-79
2022/04/06 02:02:49;;;;;;;40.80;16.92;;;;;;;7.23;100.00;99956.31;6173036;23;20233;-79
2022/04/06 02:05:18;;;;;;;44.33;18.20;;;;;;;7.24;100.00;99954.59;6163334;23;20030;-79
2022/04/06 02:07:47;;;;;;;36.65;17.83;;;;;;;7.23;100.00;99961.56;6154659;23;20024;-78
2022/04/06 02:10:17;;;;;;;42.15;18.13;;;;;;;7.24;100.00;99951.97;6162584;23;20024;-79
2022/04/06 02:12:46;;;;;;;40.47;16.80;;;;;;;7.24;100.00;99957.22;6158390;23;20020;-80
2022/04/06 02:15:15;;;;;;;40.22;16.63;;;;;;;7.23;100.00;99943.22;6163903;23;20028;-79
2022/04/06 02:17:44;;;;;;;35.67;15.60;;;;;;;7.23;100.00;99951.09;6147392;23;20024;-80
2022/04/06 02:20:13;;;;;;;44.10;17.83;;;;;;;7.24;100.00;99944.13;6129626;23;20021;-78
2022/04/06 02:22:49;;;;;;;38.55;16.55;;;;;;;7.23;100.00;99947.59;6132474;23;20195;-79
2022/04/06 02:25:18;;;;;;;36.08;16.48;;;;;;;7.24;100.00;99941.50;6128404;23;20021;-78
2022/04/06 02:27:51;;;;;;;39.30;15.70;;;;;;;7.23;100.00;99937.13;6158404;23;20359;-80
2022/04/06 02:30:20;;;;;;;45.28;16.63;;;;;;;7.25;100.00;99939.75;6153196;23;20458;-79
2022/04/06 02:32:50;;;;;;;36.80;14.75;;;;;;;7.24;100.00;99936.25;6136623;23;20021;-79
2022/04/06 02:35:18;;;;;;;38.55;13.90;;;;;;;7.25;100.00;99930.13;6138397;23;20017;-79
2022/04/06 02:37:47;;;;;;;32.78;14.15;;;;;;;7.25;100.00;99930.13;6153611;23;20021;-79
2022/04/06 02:40:15;;;;;;;31.85;12.85;;;;;;;7.25;100.00;99931.88;6124217;23;20017;-79
2022/04/06 02:42:44;;;;;;;29.65;12.98;;;;;;;7.26;100.00;99931.00;6156324;23;20013;-79
2022/04/06 02:45:13;;;;;;;28.77;11.07;;;;;;;7.27;100.00;99922.28;6127713;23;20017;-79
2022/04/06 02:47:47;;;;;;;29.52;11.75;;;;;;;7.26;100.00;99916.16;6086143;23;20402;-79
2022/04/06 02:50:15;;;;;;;31.98;12.40;;;;;;;7.26;100.00;99913.56;6162209;23;20032;-79
2022/04/06 02:52:44;;;;;;;30.20;11.68;;;;;;;7.26;100.00;99921.41;6119512;23;20021;-80
2022/04/06 02:55:13;;;;;;;20.58;10.15;;;;;;;7.28;100.00;99921.38;6162492;23;20028;-79
2022/04/06 02:57:43;;;;;;;26.65;9.80;;;;;;;7.28;100.00;99911.81;6158160;23;20220;-79
2022/04/06 03:00:15;;;;;;;25.02;10.52;;;;;;;7.28;100.00;99911.81;6152511;23;20025;-79
2022/04/06 03:02:46;;;;;;;23.88;10.25;;;;;;;7.28;100.00;99909.19;6157764;23;20032;-79
2022/04/06 03:05:14;;;;;;;18.95;8.48;;;;;;;7.29;100.00;99912.66;6124518;23;20021;-80
2022/04/06 03:07:43;;;;;;;21.48;9.15;;;;;;;7.30;100.00;99910.06;6123458;23;20030;-79
2022/04/06 03:10:11;;;;;;;18.55;8.13;;;;;;;7.31;100.00;99900.44;6075362;23;20024;-79
2022/04/06 03:12:39;;;;;;;23.35;8.50;;;;;;;7.30;100.00;99904.81;6125116;23;20021;-79
2022/04/06 03:15:08;;;;;;;17.50;7.38;;;;;;;7.30;100.00;99902.19;6128172;23;20022;-80
2022/04/06 03:17:38;;;;;;;18.45;7.38;;;;;;;7.30;100.00;99894.34;6124552;23;20029;-79
2022/04/06 03:20:08;;;;;;;18.52;8.38;;;;;;;7.30;100.00;99899.56;6103974;23;20030;-79
2022/04/06 03:22:36;;;;;;;23.58;7.47;;;;;;;7.31;100.00;99898.69;6099748;23;20340;-79
2022/04/06 03:25:06;;;;;;;14.98;6.45;;;;;;;7.30;100.00;99886.47;6122583;23;20022;-79
2022/04/06 03:27:35;;;;;;;18.77;5.63;;;;;;;7.31;100.00;99888.19;6076278;23;20037;-79
2022/04/06 03:30:06;;;;;;;18.80;5.88;;;;;;;7.32;100.00;99882.09;6126022;23;20018;-78
2022/04/06 03:32:35;;;;;;;16.08;5.70;;;;;;;7.33;100.00;99881.22;6123075;23;20040;-78
2022/04/06 03:35:04;;;;;;;15.88;6.10;;;;;;;7.34;100.00;99882.97;6125015;23;20025;-79
2022/04/06 03:37:34;;;;;;;27.67;5.75;;;;;;;7.32;100.00;99887.34;6110107;23;20026;-79
2022/04/06 03:40:07;;;;;;;16.65;5.70;;;;;;;7.33;100.00;99872.47;6097916;23;20033;-78
2022/04/06 03:42:36;;;;;;;22.75;6.00;;;;;;;7.32;100.00;99886.47;6119775;23;20014;-79
2022/04/06 03:45:05;;;;;;;11.70;5.15;;;;;;;7.31;100.00;99882.09;6121592;23;20486;-79
2022/04/06 03:47:35;;;;;;;17.92;4.55;;;;;;;7.31;100.00;99880.34;6075947;23;20360;-79
2022/04/06 03:50:05;;;;;;;15.43;5.03;;;;;;;7.32;100.00;99878.63;6091743;23;20017;-79
2022/04/06 03:52:36;;;;;;;13.43;5.13;;;;;;;7.31;100.00;99872.47;6086606;23;20340;-80
2022/04/06 03:55:07;;;;;;;11.82;5.65;;;;;;;7.30;100.00;99869.88;6098147;23;20532;-77
2022/04/06 03:57:37;;;;;;;12.15;4.85;;;;;;;7.30;100.00;99872.50;6123329;23;20033;-79
2022/04/06 04:00:08;;;;;;;13.17;4.93;;;;;;;7.28;100.00;99868.97;6127343;23;20022;-79
2022/04/06 04:02:37;;;;;;;12.32;4.82;;;;;;;7.26;100.00;99869.00;6123347;23;20356;-78
2022/04/06 04:05:06;;;;;;;13.88;4.60;;;;;;;7.27;100.00;99864.63;6102332;23;20025;-79
2022/04/06 04:07:37;;;;;;;10.90;4.72;;;;;;;7.26;100.00;99871.63;6105291;23;20044;-78
2022/04/06 04:10:10;;;;;;;9.93;4.18;;;;;;;7.26;100.00;99865.47;6152058;23;20095;-79
2022/04/06 04:12:39;;;;;;;11.88;4.10;;;;;;;7.26;100.00;99865.47;6128065;23;20033;-79
2022/04/06 04:15:08;;;;;;;16.23;5.10;;;;;;;7.25;100.00;99862.00;6122508;23;20033;-80
2022/04/06 04:17:36;;;;;;;9.00;4.43;;;;;;;7.23;100.00;99862.00;6095769;23;20021;-80
2022/04/06 04:20:06;;;;;;;17.45;5.65;;;;;;;7.22;100.00;99860.25;6131142;23;20028;-79
2022/04/06 04:22:35;;;;;;;13.25;5.07;;;;;;;7.20;100.00;99861.09;6091696;23;20070;-79
2022/04/06 04:25:03;;;;;;;21.63;5.78;;;;;;;7.19;100.00;99855.00;6121049;23;20021;-79
2022/04/06 04:27:32;;;;;;;17.85;6.25;;;;;;;7.19;100.00;99851.53;6149293;23;20474;-79
2022/04/06 04:30:00;;;;;;;17.10;5.78;;;;;;;7.19;100.00;99848.91;6145030;23;20124;-79
2022/04/06 04:32:35;;;;;;;16.63;5.82;;;;;;;7.17;100.00;99841.03;6153121;23;20033;-79
2022/04/06 04:35:05;;;;;;;19.85;6.00;;;;;;;7.17;100.00;99845.41;6130716;23;20013;-79
2022/04/06 04:37:36;;;;;;;15.60;6.18;;;;;;;7.15;100.00;99847.16;6143074;23;20022;-79
2022/04/06 04:40:06;;;;;;;17.38;6.82;;;;;;;7.16;100.00;99841.03;6095617;23;20025;-79
2022/04/06 04:42:36;;;;;;;14.52;7.82;;;;;;;7.15;100.00;99848.03;6146298;23;20021;-79
2022/04/06 04:45:06;;;;;;;15.50;6.82;;;;;;;7.15;100.00;99836.66;6094172;23;20022;-79
2022/04/06 04:47:34;;;;;;;26.52;8.68;;;;;;;7.15;100.00;99834.06;6149791;23;20021;-79
2022/04/06 04:50:04;;;;;;;20.33;7.28;;;;;;;7.15;100.00;99840.16;6158803;23;20021;-79
2022/04/06 04:52:32;;;;;;;15.63;7.13;;;;;;;7.16;100.00;99838.41;6133297;23;20018;-79
2022/04/06 04:55:01;;;;;;;17.63;8.23;;;;;;;7.16;100.00;99834.03;6119990;23;20784;-80
2022/04/06 04:57:32;;;;;;;24.35;8.32;;;;;;;7.18;100.00;99831.41;6093720;23;20025;-79
2022/04/06 05:00:01;;;;;;;28.63;9.13;;;;;;;7.18;100.00;99836.66;6131340;23;20210;-79
2022/04/06 05:02:29;;;;;;;21.92;8.88;;;;;;;7.19;100.00;99825.31;6121665;23;20033;-79
2022/04/06 05:04:57;;;;;;;22.13;8.48;;;;;;;7.20;100.00;99832.28;6157803;23;20040;-79
2022/04/06 05:07:26;;;;;;;25.02;8.75;;;;;;;7.21;100.00;99836.66;6106604;23;20037;-79
2022/04/06 05:09:54;;;;;;;31.10;9.20;;;;;;;7.21;100.00;99827.06;6103200;23;20211;-80
2022/04/06 05:12:24;;;;;;;22.42;9.02;;;;;;;7.24;100.00;99823.59;6079994;23;20029;-79
2022/04/06 05:14:53;;;;;;;22.92;8.93;;;;;;;7.25;100.00;99833.16;6087476;23;20014;-78
2022/04/06 05:17:21;;;;;;;24.17;10.38;;;;;;;7.25;100.00;99825.31;6103699;23;20029;-79
2022/04/06 05:19:49;;;;;;;24.40;9.25;;;;;;;7.26;100.00;99816.59;6125584;23;20014;-78
2022/04/06 05:22:18;;;;;;;20.98;9.95;;;;;;;7.29;100.00;99813.09;6104032;23;20025;-78
2022/04/06 05:24:47;;;;;;;29.92;10.40;;;;;;;7.29;100.00;99819.19;6061297;23;20014;-78
2022/04/06 05:27:15;;;;;;;17.50;9.35;;;;;;;7.29;100.00;99811.34;6102466;23;20026;-78
2022/04/06 05:29:43;;;;;;;24.52;8.98;;;;;;;7.30;100.00;99815.72;6119805;23;20307;-78
2022/04/06 05:32:12;;;;;;;20.60;10.50;;;;;;;7.31;100.00;99806.97;6128138;23;20014;-79
2022/04/06 05:34:40;;;;;;;24.02;9.70;;;;;;;7.30;100.00;99804.38;6125707;23;20013;-79
2022/04/06 05:37:09;;;;;;;20.42;9.90;;;;;;;7.29;100.00;99811.34;6127395;23;20029;-79
2022/04/06 05:39:37;;;;;;;29.17;10.50;;;;;;;7.30;100.00;99809.59;6086713;23;20018;-80
2022/04/06 05:42:05;;;;;;;20.02;9.82;;;;;;;7.28;100.00;99812.22;6126838;23;20028;-79
2022/04/06 05:44:34;;;;;;;19.10;9.70;;;;;;;7.27;100.00;99814.84;6119206;23;20025;-80
2022/04/06 05:47:03;;;;;;;25.25;9.57;;;;;;;7.25;100.00;99813.97;6124887;23;20352;-80
2022/04/06 05:49:31;;;;;;;19.17;9.05;;;;;;;7.23;100.00;99812.19;6096119;23;20449;-80
2022/04/06 05:52:00;;;;;;;22.05;9.20;;;;;;;7.22;100.00;99812.19;6076046;23;20555;-77
2022/04/06 05:54:28;;;;;;;32.35;9.98;;;;;;;7.20;100.00;99804.38;6121206;23;20025;-78
2022/04/06 05:56:57;;;;;;;26.70;9.85;;;;;;;7.20;100.00;99806.97;6108302;23;20489;-79
2022/04/06 05:59:25;;;;;;;25.17;9.05;;;;;;;7.20;100.00;99808.72;6085260;23;20523;-79
2022/04/06 06:01:54;;;;;;;30.52;10.48;;;;;;;7.17;100.00;99799.09;6125444;23;20018;-80
2022/04/06 06:04:22;;;;;;;24.52;9.32;;;;;;;7.17;100.00;99806.97;6090007;23;20535;-79
2022/04/06 06:06:51;;;;;;;20.95;9.20;;;;;;;7.16;100.00;99804.34;6087977;23;20029;-79
2022/04/06 06:09:19;;;;;;;27.52;9.70;;;;;;;7.13;100.00;99793.88;6152876;23;20578;-79
2022/04/06 06:11:48;;;;;;;25.27;9.45;;;;;;;7.11;100.00;99798.25;6143709;23;20021;-79
2022/04/06 06:14:16;;;;;;;34.30;10.38;;;;;;;7.11;100.00;99806.09;6066782;23;20230;-79
2022/04/06 06:16:45;;;;;;;27.00;10.70;;;;;;;7.12;100.00;99813.94;6133085;23;20021;-79
2022/04/06 06:19:13;;;;;;;28.88;10.00;;;;;;;7.08;100.00;99804.34;6136897;23;20026;-79
2022/04/06 06:21:42;;;;;;;26.05;10.88;;;;;;;7.08;100.00;99800.84;6097629;23;20028;-79
2022/04/06 06:24:11;;;;;;;24.83;10.18;;;;;;;7.06;100.00;99800.84;6104551;23;20294;-79
2022/04/06 06:26:42;;;;;;;21.25;9.48;;;;;;;7.07;100.00;99812.19;6071821;23;20021;-79
2022/04/06 06:29:11;;;;;;;23.63;9.50;;;;;;;7.05;100.00;99804.34;6120225;23;20230;-79
2022/04/06 06:31:40;;;;;;;21.17;10.25;;;;;;;7.04;100.00;99802.59;6130029;23;20017;-79
2022/04/06 06:34:09;;;;;;;18.92;8.63;;;;;;;7.04;100.00;99802.59;6116717;23;20121;-79
2022/04/06 06:36:37;;;;;;;26.45;9.52;;;;;;;7.02;100.00;99804.34;6108754;23;20033;-79
2022/04/06 06:39:06;;;;;;;17.17;8.80;;;;;;;7.01;100.00;99797.34;6119989;23;20128;-79
2022/04/06 06:41:37;;;;;;;17.38;8.32;;;;;;;7.00;100.00;99808.72;6143467;23;20337;-78
2022/04/06 06:44:05;;;;;;;18.08;8.02;;;;;;;7.00;100.00;99796.47;6130527;23;20021;-81
2022/04/06 06:46:34;;;;;;;18.70;7.97;;;;;;;7.02;100.00;99793.88;6153328;23;20029;-81
2022/04/06 06:49:03;;;;;;;20.75;8.18;;;;;;;7.02;100.00;99793.88;6153017;23;20017;-79
2022/04/06 06:51:33;;;;;;;14.45;7.45;;;;;;;7.03;100.00;99786.00;6131717;23;20344;-79
2022/04/06 06:54:01;;;;;;;17.00;7.03;;;;;;;7.05;100.00;99788.63;6154853;23;20028;-80
2022/04/06 06:56:30;;;;;;;16.02;7.72;;;;;;;7.06;100.00;99786.88;6119211;23;20260;-79
2022/04/06 06:58:58;;;;;;;14.65;7.13;;;;;;;7.06;100.00;99790.38;6152424;23;20482;-80
2022/04/06 07:01:26;;;;;;;18.38;6.78;;;;;;;7.05;100.00;99788.63;6094605;23;20060;-80
2022/04/06 07:03:55;;;;;;;11.05;6.55;;;;;;;7.05;100.00;99790.38;6123065;23;20022;-79
2022/04/06 07:06:23;;;;;;;11.20;6.18;;;;;;;7.04;100.00;99784.25;6098690;23;20021;-78
2022/04/06 07:08:53;;;;;;;13.50;6.93;;;;;;;7.03;100.00;99786.00;6079322;23;20018;-79
2022/04/06 07:11:22;;;;;;;16.80;7.38;;;;;;;7.03;100.00;99783.41;6101175;23;20385;-79
2022/04/06 07:13:50;;;;;;;19.92;7.93;;;;;;;7.05;100.00;99783.41;6103219;23;20025;-79
2022/04/06 07:16:19;;;;;;;15.77;6.50;;;;;;;7.05;100.00;99778.16;6123360;23;20014;-80
2022/04/06 07:18:48;;;;;;;16.52;7.38;;;;;;;7.04;100.00;99781.63;6112237;23;20044;-79
2022/04/06 07:21:16;;;;;;;17.25;7.25;;;;;;;7.05;100.00;99779.88;6113021;23;20136;-79
2022/04/06 07:23:44;;;;;;;12.25;5.88;;;;;;;7.03;100.00;99785.13;6126957;23;20451;-78
2022/04/06 07:26:16;;;;;;;12.68;7.30;;;;;;;7.05;100.00;99782.50;6074108;23;20629;-79
2022/04/06 07:28:46;;;;;;;16.05;6.40;;;;;;;7.02;100.00;99781.63;6104646;23;20025;-80
2022/04/06 07:31:15;;;;;;;12.25;5.28;;;;;;;7.01;100.00;99782.53;6121742;23;20018;-79
2022/04/06 07:33:43;;;;;;;10.60;5.07;;;;;;;7.01;100.00;99779.00;6065781;23;20325;-78
2022/04/06 07:36:13;;;;;;;10.23;4.68;;;;;;;7.01;100.00;99785.16;6092799;23;20029;-80
2022/04/06 07:38:43;;;;;;;;;;;;;;;7.02;100.00;99772.91;6127863;23;20348;-78
2022/04/06 07:41:11;;;;;;;13.20;4.80;;;;;;;7.02;100.00;99781.63;6121656;23;19928;-80
2022/04/06 07:43:39;;;;;;;14.32;4.88;;;;;;;7.03;100.00;99769.41;6112305;23;20025;-78
2022/04/06 07:46:08;;;;;;;11.07;5.35;;;;;;;7.04;100.00;99771.16;6123576;23;20014;-81
2022/04/06 07:48:37;;;;;;;10.45;4.32;;;;;;;7.06;100.00;99765.94;6087700;23;20025;-78
2022/04/06 07:51:05;;;;;;;14.80;6.28;;;;;;;7.04;100.00;99765.91;6112750;23;20025;-79
2022/04/06 07:53:33;;;;;;;9.00;4.28;;;;;;;7.05;100.00;99759.81;6096492;23;20014;-78
2022/04/06 07:56:02;;;;;;;13.18;5.10;;;;;;;7.06;100.00;99756.31;6123165;23;20017;-78
2022/04/06 07:58:30;;;;;;;11.45;4.90;;;;;;;7.07;100.00;99754.56;6030941;23;20032;-79
2022/04/06 08:01:01;;;;;;;9.68;4.53;;;;;;;7.06;100.00;99755.44;6067882;23;20153;-78
2022/04/06 08:03:30;;;;;;;11.52;4.13;;;;;;;7.07;100.00;99754.56;6086330;23;20034;-77
2022/04/06 08:05:58;;;;;;;10.43;4.55;;;;;;;7.11;100.00;99751.09;6083033;23;20026;-79
2022/04/06 08:08:27;;;;;;;8.93;4.43;;;;;;;7.11;100.00;99746.72;6121869;23;20021;-79
2022/04/06 08:10:55;;;;;;;10.95;4.45;;;;;;;7.12;100.00;99751.06;6099156;23;20032;-78
2022/04/06 08:13:24;;;;;;;9.23;4.32;;;;;;;7.12;100.00;99751.06;6122997;23;20021;-79
2022/04/06 08:15:53;;;;;;;10.63;5.25;;;;;;;7.15;100.00;99758.06;6115631;23;20029;-78
2022/04/06 08:18:22;;;;;;;13.50;4.63;;;;;;;7.16;100.00;99751.94;6127845;23;20033;-78
2022/04/06 08:20:51;;;;;;;6.97;4.38;;;;;;;7.16;100.00;99749.31;6079572;23;20026;-78
2022/04/06 08:23:20;;;;;;;12.23;4.43;;;;;;;7.17;100.00;99749.31;6096119;23;20356;-77
2022/04/06 08:25:51;;;;;;;7.97;4.82;;;;;;;7.18;100.00;99747.56;6096804;23;20052;-78
2022/04/06 08:28:20;;;;;;;15.35;5.72;;;;;;;7.19;100.00;99746.72;6100459;23;20022;-78
2022/04/06 08:30:48;;;;;;;14.60;4.90;;;;;;;7.21;100.00;99743.22;6083647;23;20392;-79
2022/04/06 08:33:17;;;;;;;32.85;6.93;;;;;;;7.25;100.00;99744.09;6102342;23;20018;-78
2022/04/06 08:35:54;;;;;;;20.27;6.05;;;;;;;7.28;100.00;99744.09;6061004;23;20484;-79
2022/04/06 08:38:23;;;;;;;10.45;5.65;;;;;;;7.31;100.00;99724.84;6066724;23;20018;-79
2022/04/06 08:40:53;;;;;;;13.23;5.80;;;;;;;7.31;100.00;99730.97;6040585;23;20248;-78
2022/04/06 08:43:22;;;;;;;13.63;5.47;;;;;;;7.31;100.00;99733.59;6117460;23;20026;-78
2022/04/06 08:45:52;;;;;;;12.90;5.13;;;;;;;7.34;100.00;99730.97;6086697;23;20610;-79
2022/04/06 08:48:26;;;;;;;13.55;5.72;;;;;;;7.34;100.00;99732.72;6103137;23;20045;-78
2022/04/06 08:50:58;;;;;;;11.90;4.35;;;;;;;7.36;100.00;99726.59;6086253;23;20022;-79
2022/04/06 08:53:27;;;;;;;14.73;4.88;;;;;;;7.39;100.00;99736.19;6117287;23;20022;-79
2022/04/06 08:55:56;;;;;;;24.30;5.85;;;;;;;7.39;100.00;99726.59;6096868;23;20006;-79
2022/04/06 08:58:24;;;;;;;45.03;8.23;;;;;;;7.44;100.00;99726.56;6101298;23;20025;-77
2022/04/06 09:00:53;;;;;;;14.73;4.85;;;;;;;7.45;100.00;99722.19;6058753;23;20045;-77
2022/04/06 09:03:22;;;;;;;8.02;4.57;;;;;;;7.44;100.00;99715.22;6125695;23;20033;-77
2022/04/06 09:06:07;;;;;;;11.30;4.38;;;;;;;7.40;100.00;99711.75;6106323;23;20392;-78
2022/04/06 09:08:39;;;;;;;15.38;4.90;;;;;;;7.41;100.00;99714.38;6153900;23;20028;-78
2022/04/06 09:11:20;;;;;;;9.82;4.65;;;;;;;7.46;100.00;99709.09;6148072;23;20021;-78
2022/04/06 09:13:58;;;;;;;12.63;4.53;;;;;;;7.52;100.00;99705.59;6146718;23;20032;-77
2022/04/06 09:16:34;;;;;;;10.95;4.47;;;;;;;7.59;100.00;99694.22;6134970;23;20014;-77
2022/04/06 09:19:14;;;;;;;13.60;4.25;;;;;;;7.65;100.00;99707.28;6148394;23;20319;-77
2022/04/06 09:21:48;;;;;;;16.27;4.40;;;;;;;7.67;100.00;99695.03;6176872;23;20017;-78
2022/04/06 09:24:19;;;;;;;15.65;4.75;;;;;;;7.68;100.00;99701.19;6130506;23;20027;-78
2022/04/06 09:27:03;;;;;;;15.38;5.03;;;;;;;7.71;100.00;99696.81;6141893;23;20021;-79
2022/04/06 09:29:35;;;;;;;10.15;4.22;;;;;;;7.74;100.00;99698.53;6159329;23;20024;-79
2022/04/06 09:32:10;;;;;;;8.18;3.55;;;;;;;7.77;100.00;99703.78;6145498;23;20988;-77
2022/04/06 09:34:59;;;;;;;16.42;4.55;;;;;;;7.81;100.00;99702.88;6126986;23;20374;-77
2022/04/06 09:37:30;;;;;;;13.43;4.50;;;;;;;7.81;100.00;99701.13;6135497;23;20024;-77
2022/04/06 09:40:08;;;;;;;11.38;4.57;;;;;;;7.86;100.00;99700.22;6129759;23;20303;-77
2022/04/06 09:42:37;;;;;;;21.65;6.85;;;;;;;7.91;100.00;99691.47;6152626;23;20028;-78
2022/04/06 09:48:01;;;;;;;11.20;4.38;;;;;;;8.04;100.00;99697.53;6151012;23;20435;-78
2022/04/06 09:50:30;;;;;;;16.30;5.68;;;;;;;8.16;100.00;99702.69;6160287;23;20021;-78
2022/04/06 09:53:00;;;;;;;14.10;4.38;;;;;;;8.29;100.00;99692.16;6135229;23;20025;-77
2022/04/06 09:55:29;;;;;;;17.25;4.40;;;;;;;8.33;100.00;99704.38;6066681;23;20029;-78
2022/04/06 09:57:59;;;;;;;14.45;4.40;;;;;;;8.35;100.00;99699.97;6130958;23;20017;-79
2022/04/06 10:00:30;;;;;;;13.65;4.68;;;;;;;8.37;100.00;99699.09;6131124;23;20024;-78
2022/04/06 10:03:10;;;;;;;21.40;4.72;;;;;;;8.42;100.00;99685.97;6189521;23;20443;-78
2022/04/06 10:05:42;;;;;;;12.23;3.55;;;;;;;8.42;100.00;99687.72;6149969;23;20021;-79
2022/04/06 10:08:11;;;;;;;10.00;3.40;;;;;;;8.46;100.00;99681.56;6131569;23;20029;-79
2022/04/06 10:10:41;;;;;;;9.55;3.70;;;;;;;8.50;100.00;99671.03;6121086;23;20018;-79
2022/04/06 10:13:09;;;;;;;10.80;4.38;;;;;;;8.49;100.00;99677.19;6123614;23;20022;-79
2022/04/06 10:15:58;;;;;;;12.93;3.70;;;;;;;8.50;100.00;99668.41;6075951;23;20025;-79
2022/04/06 10:18:31;;;;;;;15.45;4.32;;;;;;;8.50;100.00;99671.03;6122399;23;20029;-79
2022/04/06 10:21:26;;;;;;;15.27;4.43;;;;;;;8.50;100.00;99672.78;6108814;23;20021;-79
2022/04/06 10:24:07;;;;;;;15.65;3.85;;;;;;;8.50;100.00;99659.66;6116481;23;20022;-78
2022/04/06 10:27:08;;;;;;;15.40;4.07;;;;;;;8.51;100.00;99675.41;6115622;23;20538;-78
2022/04/06 10:30:09;;;;;;;10.85;4.25;;;;;;;8.51;100.00;99664.03;6104359;23;20022;-79
2022/04/06 10:32:42;;;;;;;17.23;4.63;;;;;;;8.50;100.00;99667.53;6116299;23;20220;-78
2022/04/06 10:35:34;;;;;;;21.80;5.28;;;;;;;8.52;100.00;99653.50;6121336;23;20032;-79
2022/04/06 10:38:03;;;;;;;11.75;4.70;;;;;;;8.53;100.00;99655.25;6123786;23;20026;-78
2022/04/06 10:40:43;;;;;;;11.98;4.47;;;;;;;8.54;100.00;99656.13;6079644;23;20030;-78
2022/04/06 10:43:30;;;;;;;;;;;;;;;8.53;100.00;99646.53;6116482;23;20274;-79
2022/04/06 10:46:00;;;;;;;10.65;4.00;;;;;;;8.51;100.00;99661.41;6124404;23;20255;-79
2022/04/06 10:48:29;;;;;;;19.80;5.53;;;;;;;8.50;100.00;99650.03;6067024;23;20071;-80
2022/04/06 10:51:28;;;;;;;18.83;5.93;;;;;;;8.55;100.00;99648.25;6082264;23;20319;-79
2022/04/06 10:53:57;;;;;;;17.58;5.68;;;;;;;8.59;100.00;99646.47;6117531;23;20033;-79
2022/04/06 10:56:54;;;;;;;18.88;5.80;;;;;;;8.64;100.00;99644.69;6091128;23;20033;-79
2022/04/06 10:59:23;;;;;;;18.55;5.18;;;;;;;8.69;100.00;99642.88;6119486;23;20022;-79
2022/04/06 11:02:25;;;;;;;13.13;5.55;;;;;;;8.69;100.00;99642.00;6123710;23;20274;-79
2022/04/06 11:04:54;;;;;;;14.32;5.03;;;;;;;8.70;100.00;99625.38;6086055;23;20129;-80
2022/04/06 11:10:24;;;;;;;20.40;6.70;;;;;;;8.71;100.00;99633.22;6146721;23;20033;-79
2022/04/06 11:12:58;;;;;;;21.20;6.65;;;;;;;8.68;100.00;99637.66;6117645;23;20576;-79
2022/04/06 11:15:34;;;;;;;17.63;6.00;;;;;;;8.65;100.00;99628.03;6117820;23;20353;-79
2022/04/06 11:18:03;;;;;;;19.77;6.55;;;;;;;8.64;100.00;99623.69;6141720;23;20017;-79
2022/04/06 11:20:33;;;;;;;20.02;5.75;;;;;;;8.62;100.00;99620.19;6117635;23;20033;-80
2022/04/06 11:23:02;;;;;;;14.07;6.50;;;;;;;8.59;100.00;99628.94;6108084;23;20025;-77
2022/04/06 11:25:31;;;;;;;14.85;5.47;;;;;;;8.64;100.00;99620.16;6121788;23;20026;-80
2022/04/06 11:28:08;;;;;;;11.48;6.20;;;;;;;8.72;100.00;99620.97;6113608;23;20113;-78
2022/04/06 11:30:43;;;;;;;17.73;6.30;;;;;;;8.80;100.00;99619.16;6136408;23;20021;-79
2022/04/06 11:33:12;;;;;;;15.43;5.65;;;;;;;8.83;100.00;99618.22;6144025;23;20025;-78
2022/04/06 11:35:40;;;;;;;18.60;6.07;;;;;;;8.81;100.00;99615.66;6115554;23;20029;-78
2022/04/06 11:38:09;;;;;;;13.93;5.45;;;;;;;8.79;100.00;99606.91;6093909;23;20026;-77
2022/04/06 11:40:39;;;;;;;20.90;6.32;;;;;;;8.77;100.00;99612.19;6094993;23;20323;-79
2022/04/06 11:43:08;;;;;;;19.38;6.53;;;;;;;8.75;100.00;99608.69;6142608;23;20038;-78
2022/04/06 11:45:41;;;;;;;24.73;6.57;;;;;;;8.72;100.00;99610.47;6091628;23;20475;-79
2022/04/06 11:48:15;;;;;;;21.52;6.30;;;;;;;8.72;100.00;99607.84;6139405;23;20018;-79